Summerfield, Texas
Current Conditions -  °F | °C
As of 12:55 AM on Sunday 21 Dec 2014 (Local Time) from KHRX Reporting Station
Clear Clear  
Wind Chill: 30°   Ceiling: Unl
Heat Index: 37°   Visibility: 10mi
Dew Point: 36°   Wind: 12mph
Humidity: 94%   Direction: 190°S
Pressure: 29.95"   Gusts: NA
Location:  34.74°N, 102.51°W
Report Text: KHRX 210655Z AUTO 19010KT 10SM CLR 03/02 A2995 RMK AO2 T00290020
Loading
Personal Weather Stations






























Interactive Weather Map New forecast layout! Learn more

10-Day Weather Forecast

Advertisements
Track Severe Weather on mobile